sensor_id;sensor_type;location;lat;lon;timestamp;pressure;altitude;pressure_sealevel;temperature;humidity
35121;BME280;21297;52.008;4.576;2023-11-21T00:02:06;42638.47;;;-143.47;100.00
35121;BME280;21297;52.008;4.576;2023-11-21T00:04:52;42638.59;;;-143.47;100.00
35121;BME280;21297;52.008;4.576;2023-11-21T00:07:38;42638.72;;;-143.47;100.00
35121;BME280;21297;52.008;4.576;2023-11-21T00:10:24;42638.72;;;-143.47;100.00
35121;BME280;21297;52.008;4.576;2023-11-21T00:13:09;42638.84;;;-143.47;100.00
35121;BME280;21297;52.008;4.576;2023-11-21T00:15:58;42638.59;;;-143.47;100.00
35121;BME280;21297;52.008;4.576;2023-11-21T00:18:44;42638.84;;;-143.47;100.00
35121;BME280;21297;52.008;4.576;2023-11-21T00:21:32;42638.72;;;-143.47;100.00
35121;BME280;21297;52.008;4.576;2023-11-21T00:24:17;42638.72;;;-143.47;100.00
35121;BME280;21297;52.008;4.576;2023-11-21T00:27:03;42638.72;;;-143.47;100.00
35121;BME280;21297;52.008;4.576;2023-11-21T00:29:48;42638.72;;;-143.47;100.00
35121;BME280;21297;52.008;4.576;2023-11-21T00:32:37;42638.72;;;-143.47;100.00
35121;BME280;21297;52.008;4.576;2023-11-21T00:35:23;42638.47;;;-143.47;100.00
35121;BME280;21297;52.008;4.576;2023-11-21T00:38:08;42638.47;;;-143.47;100.00
35121;BME280;21297;52.008;4.576;2023-11-21T00:40:54;42638.59;;;-143.47;100.00
35121;BME280;21297;52.008;4.576;2023-11-21T00:43:41;42638.84;;;-143.47;100.00
35121;BME280;21297;52.008;4.576;2023-11-21T00:46:27;42638.97;;;-143.47;100.00
35121;BME280;21297;52.008;4.576;2023-11-21T00:49:14;42638.84;;;-143.47;100.00
35121;BME280;21297;52.008;4.576;2023-11-21T00:52:00;42639.09;;;-143.47;100.00
35121;BME280;21297;52.008;4.576;2023-11-21T00:54:46;42639.09;;;-143.47;100.00
35121;BME280;21297;52.008;4.576;2023-11-21T00:57:34;42639.31;;;-143.47;100.00
35121;BME280;21297;52.008;4.576;2023-11-21T01:00:20;42639.31;;;-143.47;100.00
35121;BME280;21297;52.008;4.576;2023-11-21T01:03:06;42639.56;;;-143.47;100.00
35121;BME280;21297;52.008;4.576;2023-11-21T01:05:53;42639.44;;;-143.47;100.00
35121;BME280;21297;52.008;4.576;2023-11-21T01:08:39;42639.44;;;-143.47;100.00
35121;BME280;21297;52.008;4.576;2023-11-21T01:11:24;42639.81;;;-143.47;100.00
35121;BME280;21297;52.008;4.576;2023-11-21T01:14:10;42639.94;;;-143.47;100.00
35121;BME280;21297;52.008;4.576;2023-11-21T01:16:56;42639.94;;;-143.47;100.00
35121;BME280;21297;52.008;4.576;2023-11-21T01:19:41;42639.94;;;-143.47;100.00
35121;BME280;21297;52.008;4.576;2023-11-21T01:22:27;42639.69;;;-143.47;100.00
35121;BME280;21297;52.008;4.576;2023-11-21T01:25:13;42639.69;;;-143.47;100.00
35121;BME280;21297;52.008;4.576;2023-11-21T01:27:59;42639.44;;;-143.47;100.00
35121;BME280;21297;52.008;4.576;2023-11-21T01:30:45;42639.69;;;-143.47;100.00
35121;BME280;21297;52.008;4.576;2023-11-21T01:33:31;42639.81;;;-143.47;100.00
35121;BME280;21297;52.008;4.576;2023-11-21T01:36:16;42639.44;;;-143.47;100.00
35121;BME280;21297;52.008;4.576;2023-11-21T01:39:02;42639.44;;;-143.47;100.00
35121;BME280;21297;52.008;4.576;2023-11-21T01:41:53;42639.44;;;-143.47;100.00
35121;BME280;21297;52.008;4.576;2023-11-21T01:44:39;42639.31;;;-143.47;100.00
35121;BME280;21297;52.008;4.576;2023-11-21T01:47:25;42639.31;;;-143.47;100.00
35121;BME280;21297;52.008;4.576;2023-11-21T01:50:15;42639.44;;;-143.47;100.00
35121;BME280;21297;52.008;4.576;2023-11-21T01:53:01;42639.56;;;-143.47;100.00
35121;BME280;21297;52.008;4.576;2023-11-21T01:55:47;42639.31;;;-143.47;100.00
35121;BME280;21297;52.008;4.576;2023-11-21T01:58:33;42639.31;;;-143.47;100.00
35121;BME280;21297;52.008;4.576;2023-11-21T02:01:18;42639.31;;;-143.47;100.00
35121;BME280;21297;52.008;4.576;2023-11-21T02:04:04;42639.44;;;-143.47;100.00
35121;BME280;21297;52.008;4.576;2023-11-21T02:06:50;42639.19;;;-143.47;100.00
35121;BME280;21297;52.008;4.576;2023-11-21T02:09:36;42639.19;;;-143.47;100.00
35121;BME280;21297;52.008;4.576;2023-11-21T02:12:23;42639.19;;;-143.47;100.00
35121;BME280;21297;52.008;4.576;2023-11-21T02:15:14;42639.19;;;-143.47;100.00
35121;BME280;21297;52.008;4.576;2023-11-21T02:18:00;42639.09;;;-143.47;100.00
35121;BME280;21297;52.008;4.576;2023-11-21T02:20:46;42639.09;;;-143.47;100.00
35121;BME280;21297;52.008;4.576;2023-11-21T02:23:32;42639.31;;;-143.47;100.00
35121;BME280;21297;52.008;4.576;2023-11-21T02:26:18;42639.19;;;-143.47;100.00
35121;BME280;21297;52.008;4.576;2023-11-21T02:29:05;42639.31;;;-143.47;100.00
35121;BME280;21297;52.008;4.576;2023-11-21T02:31:52;42639.31;;;-143.47;100.00
35121;BME280;21297;52.008;4.576;2023-11-21T02:34:40;42639.19;;;-143.47;100.00
35121;BME280;21297;52.008;4.576;2023-11-21T02:37:25;42639.19;;;-143.47;100.00
35121;BME280;21297;52.008;4.576;2023-11-21T02:40:11;42639.09;;;-143.47;100.00
35121;BME280;21297;52.008;4.576;2023-11-21T02:43:03;42639.09;;;-143.47;100.00
35121;BME280;21297;52.008;4.576;2023-11-21T02:45:51;42639.31;;;-143.47;100.00
35121;BME280;21297;52.008;4.576;2023-11-21T02:48:36;42639.31;;;-143.47;100.00
35121;BME280;21297;52.008;4.576;2023-11-21T02:51:22;42639.09;;;-143.47;100.00
35121;BME280;21297;52.008;4.576;2023-11-21T02:54:08;42639.19;;;-143.47;100.00
35121;BME280;21297;52.008;4.576;2023-11-21T02:56:53;42639.19;;;-143.47;100.00
35121;BME280;21297;52.008;4.576;2023-11-21T02:59:39;42639.19;;;-143.47;100.00
35121;BME280;21297;52.008;4.576;2023-11-21T03:02:25;42639.31;;;-143.47;100.00
35121;BME280;21297;52.008;4.576;2023-11-21T03:05:11;42639.56;;;-143.47;100.00
35121;BME280;21297;52.008;4.576;2023-11-21T03:07:56;42639.56;;;-143.47;100.00
35121;BME280;21297;52.008;4.576;2023-11-21T03:10:42;42639.44;;;-143.47;100.00
35121;BME280;21297;52.008;4.576;2023-11-21T03:13:27;42639.31;;;-143.47;100.00
35121;BME280;21297;52.008;4.576;2023-11-21T03:16:15;42639.56;;;-143.47;100.00
35121;BME280;21297;52.008;4.576;2023-11-21T03:19:01;42639.69;;;-143.47;100.00
35121;BME280;21297;52.008;4.576;2023-11-21T03:21:46;42639.31;;;-143.47;100.00
35121;BME280;21297;52.008;4.576;2023-11-21T03:24:32;42639.31;;;-143.47;100.00
35121;BME280;21297;52.008;4.576;2023-11-21T03:27:18;42639.44;;;-143.47;100.00
35121;BME280;21297;52.008;4.576;2023-11-21T03:30:04;42639.69;;;-143.47;100.00
35121;BME280;21297;52.008;4.576;2023-11-21T03:32:52;42639.56;;;-143.47;100.00
35121;BME280;21297;52.008;4.576;2023-11-21T03:35:38;42639.81;;;-143.47;100.00
35121;BME280;21297;52.008;4.576;2023-11-21T03:38:24;42639.81;;;-143.47;100.00
35121;BME280;21297;52.008;4.576;2023-11-21T03:41:09;42639.56;;;-143.47;100.00
35121;BME280;21297;52.008;4.576;2023-11-21T03:43:55;42639.69;;;-143.47;100.00
35121;BME280;21297;52.008;4.576;2023-11-21T03:46:41;42640.06;;;-143.47;100.00
35121;BME280;21297;52.008;4.576;2023-11-21T03:49:26;42640.19;;;-143.47;100.00
35121;BME280;21297;52.008;4.576;2023-11-21T03:52:12;42640.31;;;-143.47;100.00
35121;BME280;21297;52.008;4.576;2023-11-21T03:54:58;42640.31;;;-143.47;100.00
35121;BME280;21297;52.008;4.576;2023-11-21T03:57:43;42640.31;;;-143.47;100.00
35121;BME280;21297;52.008;4.576;2023-11-21T04:00:29;42640.31;;;-143.47;100.00
35121;BME280;21297;52.008;4.576;2023-11-21T04:03:15;42640.44;;;-143.47;100.00
35121;BME280;21297;52.008;4.576;2023-11-21T04:06:00;42640.31;;;-143.47;100.00
35121;BME280;21297;52.008;4.576;2023-11-21T04:08:46;42640.19;;;-143.47;100.00
35121;BME280;21297;52.008;4.576;2023-11-21T04:11:32;42640.31;;;-143.47;100.00
35121;BME280;21297;52.008;4.576;2023-11-21T04:14:18;42640.44;;;-143.47;100.00
35121;BME280;21297;52.008;4.576;2023-11-21T04:17:04;42640.31;;;-143.47;100.00
35121;BME280;21297;52.008;4.576;2023-11-21T04:19:49;42640.56;;;-143.47;100.00
35121;BME280;21297;52.008;4.576;2023-11-21T04:22:39;42640.44;;;-143.47;100.00
35121;BME280;21297;52.008;4.576;2023-11-21T04:25:26;42640.44;;;-143.47;100.00
35121;BME280;21297;52.008;4.576;2023-11-21T04:28:12;42640.06;;;-143.47;100.00
35121;BME280;21297;52.008;4.576;2023-11-21T04:30:58;42640.06;;;-143.47;100.00
35121;BME280;21297;52.008;4.576;2023-11-21T04:33:45;42640.19;;;-143.47;100.00
35121;BME280;21297;52.008;4.576;2023-11-21T04:36:30;42640.56;;;-143.47;100.00
35121;BME280;21297;52.008;4.576;2023-11-21T04:39:16;42640.44;;;-143.47;100.00
35121;BME280;21297;52.008;4.576;2023-11-21T04:42:02;42640.44;;;-143.47;100.00
35121;BME280;21297;52.008;4.576;2023-11-21T04:44:48;42640.56;;;-143.47;100.00
35121;BME280;21297;52.008;4.576;2023-11-21T04:47:35;42640.69;;;-143.47;100.00
35121;BME280;21297;52.008;4.576;2023-11-21T04:50:21;42640.78;;;-143.47;100.00
35121;BME280;21297;52.008;4.576;2023-11-21T04:53:07;42640.69;;;-143.47;100.00
35121;BME280;21297;52.008;4.576;2023-11-21T04:55:52;42640.78;;;-143.47;100.00
35121;BME280;21297;52.008;4.576;2023-11-21T04:58:38;42640.78;;;-143.47;100.00
35121;BME280;21297;52.008;4.576;2023-11-21T05:01:25;42640.69;;;-143.47;100.00
35121;BME280;21297;52.008;4.576;2023-11-21T05:04:10;42640.56;;;-143.47;100.00
35121;BME280;21297;52.008;4.576;2023-11-21T05:06:56;42640.78;;;-143.47;100.00
35121;BME280;21297;52.008;4.576;2023-11-21T05:09:42;42640.91;;;-143.47;100.00
35121;BME280;21297;52.008;4.576;2023-11-21T05:12:31;42640.91;;;-143.47;100.00
35121;BME280;21297;52.008;4.576;2023-11-21T05:15:22;42640.78;;;-143.47;100.00
35121;BME280;21297;52.008;4.576;2023-11-21T05:18:08;42640.56;;;-143.47;100.00
35121;BME280;21297;52.008;4.576;2023-11-21T05:20:54;42640.56;;;-143.47;100.00
35121;BME280;21297;52.008;4.576;2023-11-21T05:23:40;42640.44;;;-143.47;100.00
35121;BME280;21297;52.008;4.576;2023-11-21T05:26:25;42640.56;;;-143.47;100.00
35121;BME280;21297;52.008;4.576;2023-11-21T05:29:11;42640.91;;;-143.47;100.00
35121;BME280;21297;52.008;4.576;2023-11-21T05:31:57;42641.16;;;-143.47;100.00
35121;BME280;21297;52.008;4.576;2023-11-21T05:34:42;42641.03;;;-143.47;100.00
35121;BME280;21297;52.008;4.576;2023-11-21T05:37:28;42640.91;;;-143.47;100.00
35121;BME280;21297;52.008;4.576;2023-11-21T05:40:14;42640.91;;;-143.47;100.00
35121;BME280;21297;52.008;4.576;2023-11-21T05:43:00;42640.78;;;-143.47;100.00
35121;BME280;21297;52.008;4.576;2023-11-21T05:45:46;42640.91;;;-143.47;100.00
35121;BME280;21297;52.008;4.576;2023-11-21T05:48:31;42640.91;;;-143.47;100.00
35121;BME280;21297;52.008;4.576;2023-11-21T05:51:17;42640.78;;;-143.47;100.00
35121;BME280;21297;52.008;4.576;2023-11-21T05:54:03;42640.69;;;-143.47;100.00
35121;BME280;21297;52.008;4.576;2023-11-21T05:56:49;42640.78;;;-143.47;100.00
35121;BME280;21297;52.008;4.576;2023-11-21T05:59:35;42641.03;;;-143.47;100.00
35121;BME280;21297;52.008;4.576;2023-11-21T06:02:20;42641.03;;;-143.47;100.00
35121;BME280;21297;52.008;4.576;2023-11-21T06:05:07;42641.28;;;-143.47;100.00
35121;BME280;21297;52.008;4.576;2023-11-21T06:07:55;42641.28;;;-143.47;100.00
35121;BME280;21297;52.008;4.576;2023-11-21T06:10:41;42641.03;;;-143.47;100.00
35121;BME280;21297;52.008;4.576;2023-11-21T06:13:27;42641.16;;;-143.47;100.00
35121;BME280;21297;52.008;4.576;2023-11-21T06:16:13;42641.03;;;-143.47;100.00
35121;BME280;21297;52.008;4.576;2023-11-21T06:19:01;42640.91;;;-143.47;100.00
35121;BME280;21297;52.008;4.576;2023-11-21T06:21:47;42640.91;;;-143.47;100.00
35121;BME280;21297;52.008;4.576;2023-11-21T06:24:33;42641.03;;;-143.47;100.00
35121;BME280;21297;52.008;4.576;2023-11-21T06:27:18;42641.16;;;-143.47;100.00
35121;BME280;21297;52.008;4.576;2023-11-21T06:30:05;42641.16;;;-143.47;100.00
35121;BME280;21297;52.008;4.576;2023-11-21T06:32:52;42641.16;;;-143.47;100.00
35121;BME280;21297;52.008;4.576;2023-11-21T06:35:37;42641.16;;;-143.47;100.00
35121;BME280;21297;52.008;4.576;2023-11-21T06:38:23;42641.16;;;-143.47;100.00
35121;BME280;21297;52.008;4.576;2023-11-21T06:41:09;42641.03;;;-143.47;100.00
35121;BME280;21297;52.008;4.576;2023-11-21T06:43:54;42641.03;;;-143.47;100.00
35121;BME280;21297;52.008;4.576;2023-11-21T06:46:40;42640.91;;;-143.47;100.00
35121;BME280;21297;52.008;4.576;2023-11-21T06:49:28;42640.91;;;-143.47;100.00
35121;BME280;21297;52.008;4.576;2023-11-21T06:52:14;42640.91;;;-143.47;100.00
35121;BME280;21297;52.008;4.576;2023-11-21T06:54:59;42640.56;;;-143.47;100.00
35121;BME280;21297;52.008;4.576;2023-11-21T06:57:45;42640.69;;;-143.47;100.00
35121;BME280;21297;52.008;4.576;2023-11-21T07:00:32;42640.69;;;-143.47;100.00
35121;BME280;21297;52.008;4.576;2023-11-21T07:03:17;42640.56;;;-143.47;100.00
35121;BME280;21297;52.008;4.576;2023-11-21T07:06:04;42640.78;;;-143.47;100.00
35121;BME280;21297;52.008;4.576;2023-11-21T07:08:50;42640.69;;;-143.47;100.00
35121;BME280;21297;52.008;4.576;2023-11-21T07:11:36;42640.44;;;-143.47;100.00
35121;BME280;21297;52.008;4.576;2023-11-21T07:14:22;42640.44;;;-143.47;100.00
35121;BME280;21297;52.008;4.576;2023-11-21T07:17:07;42640.44;;;-143.47;100.00
35121;BME280;21297;52.008;4.576;2023-11-21T07:19:53;42640.69;;;-143.47;100.00
35121;BME280;21297;52.008;4.576;2023-11-21T07:22:38;42640.56;;;-143.47;100.00
35121;BME280;21297;52.008;4.576;2023-11-21T07:25:24;42640.56;;;-143.47;100.00
35121;BME280;21297;52.008;4.576;2023-11-21T07:28:10;42640.56;;;-143.47;100.00
35121;BME280;21297;52.008;4.576;2023-11-21T07:30:55;42640.69;;;-143.47;100.00
35121;BME280;21297;52.008;4.576;2023-11-21T07:33:41;42640.78;;;-143.47;100.00
35121;BME280;21297;52.008;4.576;2023-11-21T07:36:27;42640.78;;;-143.47;100.00
35121;BME280;21297;52.008;4.576;2023-11-21T07:39:13;42640.91;;;-143.47;100.00
35121;BME280;21297;52.008;4.576;2023-11-21T07:42:01;42640.44;;;-143.47;100.00
35121;BME280;21297;52.008;4.576;2023-11-21T07:44:47;42640.44;;;-143.47;100.00
35121;BME280;21297;52.008;4.576;2023-11-21T07:47:33;42640.31;;;-143.47;100.00
35121;BME280;21297;52.008;4.576;2023-11-21T07:50:19;42640.19;;;-143.47;100.00
35121;BME280;21297;52.008;4.576;2023-11-21T07:53:06;42640.06;;;-143.47;100.00
35121;BME280;21297;52.008;4.576;2023-11-21T07:55:52;42640.06;;;-143.47;100.00
35121;BME280;21297;52.008;4.576;2023-11-21T07:58:37;42639.69;;;-143.47;100.00
35121;BME280;21297;52.008;4.576;2023-11-21T08:01:23;42639.94;;;-143.47;100.00
35121;BME280;21297;52.008;4.576;2023-11-21T08:04:09;42639.81;;;-143.47;100.00
35121;BME280;21297;52.008;4.576;2023-11-21T08:06:54;42639.81;;;-143.47;100.00
35121;BME280;21297;52.008;4.576;2023-11-21T08:09:40;42639.81;;;-143.47;100.00
35121;BME280;21297;52.008;4.576;2023-11-21T08:12:25;42640.06;;;-143.47;100.00
35121;BME280;21297;52.008;4.576;2023-11-21T08:15:13;42640.19;;;-143.47;100.00
35121;BME280;21297;52.008;4.576;2023-11-21T08:17:58;42640.31;;;-143.47;100.00
35121;BME280;21297;52.008;4.576;2023-11-21T08:20:44;42640.31;;;-143.47;100.00
35121;BME280;21297;52.008;4.576;2023-11-21T08:23:33;42640.19;;;-143.47;100.00
35121;BME280;21297;52.008;4.576;2023-11-21T08:26:20;42640.06;;;-143.47;100.00
35121;BME280;21297;52.008;4.576;2023-11-21T08:29:06;42640.19;;;-143.47;100.00
35121;BME280;21297;52.008;4.576;2023-11-21T08:31:52;42640.19;;;-143.47;100.00
35121;BME280;21297;52.008;4.576;2023-11-21T08:34:38;42640.56;;;-143.47;100.00
35121;BME280;21297;52.008;4.576;2023-11-21T08:37:25;42640.44;;;-143.47;100.00
35121;BME280;21297;52.008;4.576;2023-11-21T08:40:12;42640.44;;;-143.47;100.00
35121;BME280;21297;52.008;4.576;2023-11-21T08:43:01;42640.44;;;-143.47;100.00
35121;BME280;21297;52.008;4.576;2023-11-21T08:45:49;42640.69;;;-143.47;100.00
35121;BME280;21297;52.008;4.576;2023-11-21T08:48:38;42640.78;;;-143.47;100.00
35121;BME280;21297;52.008;4.576;2023-11-21T08:51:24;42640.69;;;-143.47;100.00
35121;BME280;21297;52.008;4.576;2023-11-21T08:54:10;42640.56;;;-143.47;100.00
35121;BME280;21297;52.008;4.576;2023-11-21T08:56:57;42640.44;;;-143.47;100.00
35121;BME280;21297;52.008;4.576;2023-11-21T08:59:43;42640.31;;;-143.47;100.00
35121;BME280;21297;52.008;4.576;2023-11-21T09:02:29;42640.19;;;-143.47;100.00
35121;BME280;21297;52.008;4.576;2023-11-21T09:05:15;42640.19;;;-143.47;100.00
35121;BME280;21297;52.008;4.576;2023-11-21T09:08:01;42640.06;;;-143.47;100.00
35121;BME280;21297;52.008;4.576;2023-11-21T09:10:47;42640.19;;;-143.47;100.00
35121;BME280;21297;52.008;4.576;2023-11-21T09:13:32;42640.44;;;-143.47;100.00
35121;BME280;21297;52.008;4.576;2023-11-21T09:16:18;42640.78;;;-143.47;100.00
35121;BME280;21297;52.008;4.576;2023-11-21T09:19:04;42640.78;;;-143.47;100.00
35121;BME280;21297;52.008;4.576;2023-11-21T09:21:50;42640.78;;;-143.47;100.00
35121;BME280;21297;52.008;4.576;2023-11-21T09:24:36;42640.78;;;-143.47;100.00
35121;BME280;21297;52.008;4.576;2023-11-21T09:27:23;42640.91;;;-143.47;100.00
35121;BME280;21297;52.008;4.576;2023-11-21T09:30:09;42641.03;;;-143.47;100.00
35121;BME280;21297;52.008;4.576;2023-11-21T09:32:55;42640.91;;;-143.47;100.00
35121;BME280;21297;52.008;4.576;2023-11-21T09:35:41;42641.03;;;-143.47;100.00
35121;BME280;21297;52.008;4.576;2023-11-21T09:38:29;42641.28;;;-143.47;100.00
35121;BME280;21297;52.008;4.576;2023-11-21T09:41:29;42641.41;;;-143.47;100.00
35121;BME280;21297;52.008;4.576;2023-11-21T09:44:29;42641.66;;;-143.47;100.00
35121;BME280;21297;52.008;4.576;2023-11-21T09:47:20;42641.78;;;-143.47;100.00
35121;BME280;21297;52.008;4.576;2023-11-21T09:50:07;42641.53;;;-143.47;100.00
35121;BME280;21297;52.008;4.576;2023-11-21T09:53:18;42641.53;;;-143.47;100.00
35121;BME280;21297;52.008;4.576;2023-11-21T09:56:06;42641.28;;;-143.47;100.00
35121;BME280;21297;52.008;4.576;2023-11-21T09:58:54;42640.78;;;-143.47;100.00
35121;BME280;21297;52.008;4.576;2023-11-21T10:01:42;42640.69;;;-143.47;100.00
35121;BME280;21297;52.008;4.576;2023-11-21T10:04:28;42640.69;;;-143.47;100.00
35121;BME280;21297;52.008;4.576;2023-11-21T10:07:17;42640.31;;;-143.47;100.00
35121;BME280;21297;52.008;4.576;2023-11-21T10:10:03;42640.31;;;-143.47;100.00
35121;BME280;21297;52.008;4.576;2023-11-21T10:12:50;42640.19;;;-143.47;100.00
35121;BME280;21297;52.008;4.576;2023-11-21T10:15:41;42640.31;;;-143.47;100.00
35121;BME280;21297;52.008;4.576;2023-11-21T10:18:30;42640.31;;;-143.47;100.00
35121;BME280;21297;52.008;4.576;2023-11-21T10:21:15;42640.44;;;-143.47;100.00
35121;BME280;21297;52.008;4.576;2023-11-21T10:24:02;42640.31;;;-143.47;100.00
35121;BME280;21297;52.008;4.576;2023-11-21T10:26:48;42640.31;;;-143.47;100.00
35121;BME280;21297;52.008;4.576;2023-11-21T10:29:34;42640.19;;;-143.47;100.00
35121;BME280;21297;52.008;4.576;2023-11-21T10:32:21;42640.06;;;-143.47;100.00
35121;BME280;21297;52.008;4.576;2023-11-21T10:35:07;42640.31;;;-143.47;100.00
35121;BME280;21297;52.008;4.576;2023-11-21T10:38:01;42640.06;;;-143.47;100.00
35121;BME280;21297;52.008;4.576;2023-11-21T10:40:48;42640.19;;;-143.47;100.00
35121;BME280;21297;52.008;4.576;2023-11-21T10:43:34;42640.31;;;-143.47;100.00
35121;BME280;21297;52.008;4.576;2023-11-21T10:46:20;42640.44;;;-143.47;100.00
35121;BME280;21297;52.008;4.576;2023-11-21T10:49:06;42640.44;;;-143.47;100.00
35121;BME280;21297;52.008;4.576;2023-11-21T10:51:53;42640.56;;;-143.47;100.00
35121;BME280;21297;52.008;4.576;2023-11-21T10:54:39;42640.56;;;-143.47;100.00
35121;BME280;21297;52.008;4.576;2023-11-21T10:57:24;42640.69;;;-143.47;100.00
35121;BME280;21297;52.008;4.576;2023-11-21T11:00:11;42640.69;;;-143.47;100.00
35121;BME280;21297;52.008;4.576;2023-11-21T11:02:59;42640.69;;;-143.47;100.00
35121;BME280;21297;52.008;4.576;2023-11-21T11:05:46;42640.91;;;-143.47;100.00
35121;BME280;21297;52.008;4.576;2023-11-21T11:08:40;42640.56;;;-143.47;100.00
35121;BME280;21297;52.008;4.576;2023-11-21T11:11:26;42640.56;;;-143.47;100.00
35121;BME280;21297;52.008;4.576;2023-11-21T11:14:12;42640.44;;;-143.47;100.00
35121;BME280;21297;52.008;4.576;2023-11-21T11:16:59;42640.31;;;-143.47;100.00
35121;BME280;21297;52.008;4.576;2023-11-21T11:19:49;42640.19;;;-143.47;100.00
35121;BME280;21297;52.008;4.576;2023-11-21T11:22:45;42640.56;;;-143.47;100.00
35121;BME280;21297;52.008;4.576;2023-11-21T11:26:14;42640.44;;;-143.47;100.00
35121;BME280;21297;52.008;4.576;2023-11-21T11:29:14;42640.56;;;-143.47;100.00
35121;BME280;21297;52.008;4.576;2023-11-21T11:32:12;42640.44;;;-143.47;100.00
35121;BME280;21297;52.008;4.576;2023-11-21T11:35:10;42640.44;;;-143.47;100.00
35121;BME280;21297;52.008;4.576;2023-11-21T11:38:01;42640.56;;;-143.47;100.00
35121;BME280;21297;52.008;4.576;2023-11-21T11:40:47;42640.44;;;-143.47;100.00
35121;BME280;21297;52.008;4.576;2023-11-21T11:43:33;42640.56;;;-143.47;100.00
35121;BME280;21297;52.008;4.576;2023-11-21T11:46:42;42640.69;;;-143.47;100.00
35121;BME280;21297;52.008;4.576;2023-11-21T11:49:28;42640.44;;;-143.47;100.00
35121;BME280;21297;52.008;4.576;2023-11-21T11:52:34;42640.31;;;-143.47;100.00
35121;BME280;21297;52.008;4.576;2023-11-21T11:55:21;42640.44;;;-143.47;100.00
35121;BME280;21297;52.008;4.576;2023-11-21T11:58:08;42640.69;;;-143.47;100.00
35121;BME280;21297;52.008;4.576;2023-11-21T12:00:53;42640.56;;;-143.47;100.00
35121;BME280;21297;52.008;4.576;2023-11-21T12:03:40;42640.19;;;-143.47;100.00
35121;BME280;21297;52.008;4.576;2023-11-21T12:06:33;42640.44;;;-143.47;100.00
35121;BME280;21297;52.008;4.576;2023-11-21T12:09:21;42640.56;;;-143.47;100.00
35121;BME280;21297;52.008;4.576;2023-11-21T12:12:08;42640.44;;;-143.47;100.00
35121;BME280;21297;52.008;4.576;2023-11-21T12:14:53;42640.44;;;-143.47;100.00
35121;BME280;21297;52.008;4.576;2023-11-21T12:17:43;42640.69;;;-143.47;100.00
35121;BME280;21297;52.008;4.576;2023-11-21T12:20:30;42640.69;;;-143.47;100.00
35121;BME280;21297;52.008;4.576;2023-11-21T12:23:16;42640.78;;;-143.47;100.00
35121;BME280;21297;52.008;4.576;2023-11-21T12:26:02;42640.91;;;-143.47;100.00
35121;BME280;21297;52.008;4.576;2023-11-21T12:28:55;42640.91;;;-143.47;100.00
35121;BME280;21297;52.008;4.576;2023-11-21T12:31:44;42640.78;;;-143.47;100.00
35121;BME280;21297;52.008;4.576;2023-11-21T12:34:31;42640.91;;;-143.47;100.00
35121;BME280;21297;52.008;4.576;2023-11-21T12:37:17;42641.03;;;-143.47;100.00
35121;BME280;21297;52.008;4.576;2023-11-21T12:40:05;42640.78;;;-143.47;100.00
35121;BME280;21297;52.008;4.576;2023-11-21T12:42:53;42640.91;;;-143.47;100.00
35121;BME280;21297;52.008;4.576;2023-11-21T12:45:39;42641.03;;;-143.47;100.00
35121;BME280;21297;52.008;4.576;2023-11-21T12:48:25;42641.16;;;-143.47;100.00
35121;BME280;21297;52.008;4.576;2023-11-21T12:51:12;42641.03;;;-143.47;100.00
35121;BME280;21297;52.008;4.576;2023-11-21T12:53:59;42641.03;;;-143.47;100.00
35121;BME280;21297;52.008;4.576;2023-11-21T12:56:46;42641.16;;;-143.47;100.00
35121;BME280;21297;52.008;4.576;2023-11-21T12:59:34;42641.28;;;-143.47;100.00
35121;BME280;21297;52.008;4.576;2023-11-21T13:02:20;42641.41;;;-143.47;100.00
35121;BME280;21297;52.008;4.576;2023-11-21T13:05:05;42641.41;;;-143.47;100.00
35121;BME280;21297;52.008;4.576;2023-11-21T13:08:00;42641.28;;;-143.47;99.06
35121;BME280;21297;52.008;4.576;2023-11-21T13:10:53;42641.16;;;-143.47;99.71
35121;BME280;21297;52.008;4.576;2023-11-21T13:13:41;42641.16;;;-143.47;99.12
35121;BME280;21297;52.008;4.576;2023-11-21T13:16:29;42641.03;;;-143.47;98.25
35121;BME280;21297;52.008;4.576;2023-11-21T13:19:16;42641.16;;;-143.47;98.16
35121;BME280;21297;52.008;4.576;2023-11-21T13:22:01;42641.28;;;-143.47;97.24
35121;BME280;21297;52.008;4.576;2023-11-21T13:24:49;42641.53;;;-143.47;96.03
35121;BME280;21297;52.008;4.576;2023-11-21T13:27:35;42641.66;;;-143.47;96.35
35121;BME280;21297;52.008;4.576;2023-11-21T13:30:23;42641.66;;;-143.47;95.92
35121;BME280;21297;52.008;4.576;2023-11-21T13:33:20;42641.66;;;-143.47;97.43
35121;BME280;21297;52.008;4.576;2023-11-21T13:36:13;42641.53;;;-143.47;97.23
35121;BME280;21297;52.008;4.576;2023-11-21T13:39:00;42641.41;;;-143.47;98.94
35121;BME280;21297;52.008;4.576;2023-11-21T13:41:50;42641.41;;;-143.47;98.86
35121;BME280;21297;52.008;4.576;2023-11-21T13:44:36;42641.41;;;-143.47;98.30
35121;BME280;21297;52.008;4.576;2023-11-21T13:47:23;42641.28;;;-143.47;98.96
35121;BME280;21297;52.008;4.576;2023-11-21T13:50:14;42641.03;;;-143.47;98.14
35121;BME280;21297;52.008;4.576;2023-11-21T13:53:07;42641.03;;;-143.47;99.93
35121;BME280;21297;52.008;4.576;2023-11-21T13:56:03;42641.03;;;-143.47;100.00
35121;BME280;21297;52.008;4.576;2023-11-21T13:58:52;42641.16;;;-143.47;100.00
35121;BME280;21297;52.008;4.576;2023-11-21T14:01:38;42641.16;;;-143.47;100.00
35121;BME280;21297;52.008;4.576;2023-11-21T14:04:40;42641.28;;;-143.47;100.00
35121;BME280;21297;52.008;4.576;2023-11-21T14:07:40;42641.28;;;-143.47;100.00
35121;BME280;21297;52.008;4.576;2023-11-21T14:10:33;42641.28;;;-143.47;100.00
35121;BME280;21297;52.008;4.576;2023-11-21T14:13:26;42641.28;;;-143.47;100.00